sensor_id;sensor_type;location;lat;lon;timestamp;P1;durP1;ratioP1;P2;durP2;ratioP2
28437;SDS011;15667;52.376;9.708;2023-05-14T00:00:50;10.27;;;5.13;;
28437;SDS011;15667;52.376;9.708;2023-05-14T00:03:16;13.13;;;5.68;;
28437;SDS011;15667;52.376;9.708;2023-05-14T00:05:42;14.27;;;6.28;;
28437;SDS011;15667;52.376;9.708;2023-05-14T00:08:08;14.18;;;6.03;;
28437;SDS011;15667;52.376;9.708;2023-05-14T00:10:34;11.98;;;5.90;;
28437;SDS011;15667;52.376;9.708;2023-05-14T00:12:59;12.68;;;6.18;;
28437;SDS011;15667;52.376;9.708;2023-05-14T00:15:25;9.82;;;6.03;;
28437;SDS011;15667;52.376;9.708;2023-05-14T00:17:51;10.30;;;5.90;;
28437;SDS011;15667;52.376;9.708;2023-05-14T00:20:16;10.93;;;6.55;;
28437;SDS011;15667;52.376;9.708;2023-05-14T00:22:42;9.98;;;5.78;;
28437;SDS011;15667;52.376;9.708;2023-05-14T00:25:08;16.45;;;5.65;;
28437;SDS011;15667;52.376;9.708;2023-05-14T00:27:34;9.02;;;5.00;;
28437;SDS011;15667;52.376;9.708;2023-05-14T00:30:02;9.75;;;5.40;;
28437;SDS011;15667;52.376;9.708;2023-05-14T00:32:30;9.02;;;5.28;;
28437;SDS011;15667;52.376;9.708;2023-05-14T00:34:55;8.30;;;5.57;;
28437;SDS011;15667;52.376;9.708;2023-05-14T00:37:21;12.15;;;5.82;;
28437;SDS011;15667;52.376;9.708;2023-05-14T00:39:47;10.57;;;6.05;;
28437;SDS011;15667;52.376;9.708;2023-05-14T00:42:13;10.75;;;6.00;;
28437;SDS011;15667;52.376;9.708;2023-05-14T00:44:39;7.20;;;5.30;;
28437;SDS011;15667;52.376;9.708;2023-05-14T00:47:04;13.00;;;5.50;;
28437;SDS011;15667;52.376;9.708;2023-05-14T00:49:30;9.00;;;5.93;;
28437;SDS011;15667;52.376;9.708;2023-05-14T00:51:56;12.90;;;5.95;;
28437;SDS011;15667;52.376;9.708;2023-05-14T00:54:24;11.60;;;5.70;;
28437;SDS011;15667;52.376;9.708;2023-05-14T00:56:52;13.82;;;5.68;;
28437;SDS011;15667;52.376;9.708;2023-05-14T00:59:19;9.10;;;5.97;;
28437;SDS011;15667;52.376;9.708;2023-05-14T01:01:44;8.50;;;5.78;;
28437;SDS011;15667;52.376;9.708;2023-05-14T01:04:10;8.70;;;6.28;;
28437;SDS011;15667;52.376;9.708;2023-05-14T01:17:34;13.20;;;7.20;;
28437;SDS011;15667;52.376;9.708;2023-05-14T01:20:09;12.90;;;6.82;;
28437;SDS011;15667;52.376;9.708;2023-05-14T01:22:36;12.02;;;6.60;;
28437;SDS011;15667;52.376;9.708;2023-05-14T01:25:02;11.57;;;7.10;;
28437;SDS011;15667;52.376;9.708;2023-05-14T01:27:44;7.95;;;6.22;;
28437;SDS011;15667;52.376;9.708;2023-05-14T01:30:25;9.88;;;6.80;;
28437;SDS011;15667;52.376;9.708;2023-05-14T01:32:53;9.93;;;6.50;;
28437;SDS011;15667;52.376;9.708;2023-05-14T01:35:24;10.48;;;6.15;;
28437;SDS011;15667;52.376;9.708;2023-05-14T01:38:02;12.18;;;6.82;;
28437;SDS011;15667;52.376;9.708;2023-05-14T01:40:30;11.32;;;6.70;;
28437;SDS011;15667;52.376;9.708;2023-05-14T01:42:57;11.07;;;6.45;;
28437;SDS011;15667;52.376;9.708;2023-05-14T01:45:24;8.52;;;6.28;;
28437;SDS011;15667;52.376;9.708;2023-05-14T01:47:50;10.98;;;6.05;;
28437;SDS011;15667;52.376;9.708;2023-05-14T01:50:16;8.45;;;6.38;;
28437;SDS011;15667;52.376;9.708;2023-05-14T01:52:42;9.68;;;6.53;;
28437;SDS011;15667;52.376;9.708;2023-05-14T01:55:08;9.77;;;5.95;;
28437;SDS011;15667;52.376;9.708;2023-05-14T01:57:34;9.20;;;6.43;;
28437;SDS011;15667;52.376;9.708;2023-05-14T02:00:00;11.68;;;6.47;;
28437;SDS011;15667;52.376;9.708;2023-05-14T02:02:26;9.50;;;6.40;;
28437;SDS011;15667;52.376;9.708;2023-05-14T02:04:51;11.93;;;6.82;;
28437;SDS011;15667;52.376;9.708;2023-05-14T02:07:17;9.40;;;6.53;;
28437;SDS011;15667;52.376;9.708;2023-05-14T02:09:43;10.48;;;6.50;;
28437;SDS011;15667;52.376;9.708;2023-05-14T02:12:08;10.02;;;6.18;;
28437;SDS011;15667;52.376;9.708;2023-05-14T02:14:35;10.80;;;6.75;;
28437;SDS011;15667;52.376;9.708;2023-05-14T02:17:01;11.63;;;6.63;;
28437;SDS011;15667;52.376;9.708;2023-05-14T02:19:27;9.20;;;6.68;;
28437;SDS011;15667;52.376;9.708;2023-05-14T02:21:53;7.05;;;5.82;;
28437;SDS011;15667;52.376;9.708;2023-05-14T02:24:19;12.45;;;6.68;;
28437;SDS011;15667;52.376;9.708;2023-05-14T02:26:45;10.70;;;6.53;;
28437;SDS011;15667;52.376;9.708;2023-05-14T02:29:11;10.13;;;6.07;;
28437;SDS011;15667;52.376;9.708;2023-05-14T02:31:36;10.57;;;6.38;;
28437;SDS011;15667;52.376;9.708;2023-05-14T02:34:02;9.80;;;6.90;;
28437;SDS011;15667;52.376;9.708;2023-05-14T02:36:28;10.00;;;6.47;;
28437;SDS011;15667;52.376;9.708;2023-05-14T02:38:54;10.80;;;6.13;;
28437;SDS011;15667;52.376;9.708;2023-05-14T02:41:22;12.90;;;6.47;;
28437;SDS011;15667;52.376;9.708;2023-05-14T02:43:48;8.75;;;6.15;;
28437;SDS011;15667;52.376;9.708;2023-05-14T02:46:14;11.70;;;6.35;;
28437;SDS011;15667;52.376;9.708;2023-05-14T02:48:40;11.43;;;6.65;;
28437;SDS011;15667;52.376;9.708;2023-05-14T02:51:06;9.68;;;6.18;;
28437;SDS011;15667;52.376;9.708;2023-05-14T02:53:31;11.57;;;6.38;;
28437;SDS011;15667;52.376;9.708;2023-05-14T02:55:57;9.55;;;6.63;;
28437;SDS011;15667;52.376;9.708;2023-05-14T02:58:23;7.60;;;6.13;;
28437;SDS011;15667;52.376;9.708;2023-05-14T03:00:48;11.93;;;6.38;;
28437;SDS011;15667;52.376;9.708;2023-05-14T03:03:14;9.57;;;6.68;;
28437;SDS011;15667;52.376;9.708;2023-05-14T03:05:39;10.98;;;6.88;;
28437;SDS011;15667;52.376;9.708;2023-05-14T03:08:05;13.23;;;7.18;;
28437;SDS011;15667;52.376;9.708;2023-05-14T03:10:31;15.27;;;7.20;;
28437;SDS011;15667;52.376;9.708;2023-05-14T03:12:57;10.45;;;7.05;;
28437;SDS011;15667;52.376;9.708;2023-05-14T03:15:22;10.32;;;6.93;;
28437;SDS011;15667;52.376;9.708;2023-05-14T03:17:48;13.30;;;6.55;;
28437;SDS011;15667;52.376;9.708;2023-05-14T03:20:13;11.77;;;6.20;;
28437;SDS011;15667;52.376;9.708;2023-05-14T03:22:39;11.90;;;6.40;;
28437;SDS011;15667;52.376;9.708;2023-05-14T03:25:05;12.82;;;6.80;;
28437;SDS011;15667;52.376;9.708;2023-05-14T03:27:31;11.05;;;6.63;;
28437;SDS011;15667;52.376;9.708;2023-05-14T03:29:57;11.88;;;6.53;;
28437;SDS011;15667;52.376;9.708;2023-05-14T03:32:23;10.57;;;7.25;;
28437;SDS011;15667;52.376;9.708;2023-05-14T03:34:48;11.77;;;7.00;;
28437;SDS011;15667;52.376;9.708;2023-05-14T03:37:14;11.27;;;7.07;;
28437;SDS011;15667;52.376;9.708;2023-05-14T03:39:40;13.60;;;7.38;;
28437;SDS011;15667;52.376;9.708;2023-05-14T03:42:05;15.20;;;7.95;;
28437;SDS011;15667;52.376;9.708;2023-05-14T03:44:31;10.77;;;7.00;;
28437;SDS011;15667;52.376;9.708;2023-05-14T03:46:57;9.05;;;6.65;;
28437;SDS011;15667;52.376;9.708;2023-05-14T03:49:22;12.82;;;6.75;;
28437;SDS011;15667;52.376;9.708;2023-05-14T03:51:48;12.18;;;7.40;;
28437;SDS011;15667;52.376;9.708;2023-05-14T03:54:13;11.80;;;7.32;;
28437;SDS011;15667;52.376;9.708;2023-05-14T03:56:39;12.38;;;7.25;;
28437;SDS011;15667;52.376;9.708;2023-05-14T03:59:05;14.50;;;7.75;;
28437;SDS011;15667;52.376;9.708;2023-05-14T04:01:30;11.45;;;7.60;;
28437;SDS011;15667;52.376;9.708;2023-05-14T04:03:56;12.70;;;6.82;;
28437;SDS011;15667;52.376;9.708;2023-05-14T04:06:22;13.93;;;7.40;;
28437;SDS011;15667;52.376;9.708;2023-05-14T04:08:47;13.10;;;7.53;;
28437;SDS011;15667;52.376;9.708;2023-05-14T04:11:13;12.77;;;7.15;;
28437;SDS011;15667;52.376;9.708;2023-05-14T04:13:38;14.48;;;7.85;;
28437;SDS011;15667;52.376;9.708;2023-05-14T04:16:04;11.20;;;7.30;;
28437;SDS011;15667;52.376;9.708;2023-05-14T04:18:30;12.30;;;7.68;;
28437;SDS011;15667;52.376;9.708;2023-05-14T04:20:59;15.05;;;8.18;;
28437;SDS011;15667;52.376;9.708;2023-05-14T04:23:25;13.02;;;7.47;;
28437;SDS011;15667;52.376;9.708;2023-05-14T04:25:50;10.65;;;6.88;;
28437;SDS011;15667;52.376;9.708;2023-05-14T04:28:16;9.75;;;6.40;;
28437;SDS011;15667;52.376;9.708;2023-05-14T04:30:41;10.05;;;6.72;;
28437;SDS011;15667;52.376;9.708;2023-05-14T04:33:07;12.05;;;6.97;;
28437;SDS011;15667;52.376;9.708;2023-05-14T04:35:32;11.02;;;6.10;;
28437;SDS011;15667;52.376;9.708;2023-05-14T04:37:58;10.68;;;6.72;;
28437;SDS011;15667;52.376;9.708;2023-05-14T04:40:23;11.73;;;6.78;;
28437;SDS011;15667;52.376;9.708;2023-05-14T04:42:49;8.45;;;5.85;;
28437;SDS011;15667;52.376;9.708;2023-05-14T04:45:15;8.35;;;6.18;;
28437;SDS011;15667;52.376;9.708;2023-05-14T04:47:40;8.38;;;6.30;;
28437;SDS011;15667;52.376;9.708;2023-05-14T04:50:06;11.60;;;6.65;;
28437;SDS011;15667;52.376;9.708;2023-05-14T04:52:33;10.38;;;6.47;;
28437;SDS011;15667;52.376;9.708;2023-05-14T04:54:59;9.75;;;6.00;;
28437;SDS011;15667;52.376;9.708;2023-05-14T04:57:25;9.25;;;6.20;;
28437;SDS011;15667;52.376;9.708;2023-05-14T04:59:51;8.40;;;6.10;;
28437;SDS011;15667;52.376;9.708;2023-05-14T05:02:16;10.30;;;6.20;;
28437;SDS011;15667;52.376;9.708;2023-05-14T05:04:42;11.93;;;6.38;;
28437;SDS011;15667;52.376;9.708;2023-05-14T05:07:07;11.50;;;7.20;;
28437;SDS011;15667;52.376;9.708;2023-05-14T05:09:33;9.05;;;5.68;;
28437;SDS011;15667;52.376;9.708;2023-05-14T05:11:58;9.13;;;6.93;;
28437;SDS011;15667;52.376;9.708;2023-05-14T05:14:25;14.15;;;6.68;;
28437;SDS011;15667;52.376;9.708;2023-05-14T05:16:51;10.27;;;6.28;;
28437;SDS011;15667;52.376;9.708;2023-05-14T05:19:16;10.02;;;6.07;;
28437;SDS011;15667;52.376;9.708;2023-05-14T05:21:42;13.70;;;6.10;;
28437;SDS011;15667;52.376;9.708;2023-05-14T05:24:08;10.35;;;6.15;;
28437;SDS011;15667;52.376;9.708;2023-05-14T05:26:33;9.52;;;5.72;;
28437;SDS011;15667;52.376;9.708;2023-05-14T05:29:02;8.35;;;5.85;;
28437;SDS011;15667;52.376;9.708;2023-05-14T05:31:28;11.25;;;5.68;;
28437;SDS011;15667;52.376;9.708;2023-05-14T05:33:55;8.35;;;5.82;;
28437;SDS011;15667;52.376;9.708;2023-05-14T05:36:21;11.00;;;5.97;;
28437;SDS011;15667;52.376;9.708;2023-05-14T05:38:46;8.85;;;5.97;;
28437;SDS011;15667;52.376;9.708;2023-05-14T05:41:12;7.90;;;5.68;;
28437;SDS011;15667;52.376;9.708;2023-05-14T05:43:38;9.27;;;5.78;;
28437;SDS011;15667;52.376;9.708;2023-05-14T05:46:03;11.60;;;6.07;;
28437;SDS011;15667;52.376;9.708;2023-05-14T05:48:29;9.68;;;5.75;;
28437;SDS011;15667;52.376;9.708;2023-05-14T05:50:54;10.35;;;6.10;;
28437;SDS011;15667;52.376;9.708;2023-05-14T05:53:20;9.57;;;5.97;;
28437;SDS011;15667;52.376;9.708;2023-05-14T05:55:46;12.00;;;6.35;;
28437;SDS011;15667;52.376;9.708;2023-05-14T05:58:11;13.73;;;7.22;;
28437;SDS011;15667;52.376;9.708;2023-05-14T06:00:39;11.50;;;6.18;;
28437;SDS011;15667;52.376;9.708;2023-05-14T06:03:05;6.93;;;5.25;;
28437;SDS011;15667;52.376;9.708;2023-05-14T06:05:31;9.30;;;5.07;;
28437;SDS011;15667;52.376;9.708;2023-05-14T06:07:56;11.60;;;5.50;;
28437;SDS011;15667;52.376;9.708;2023-05-14T06:10:22;9.82;;;5.38;;
28437;SDS011;15667;52.376;9.708;2023-05-14T06:12:48;6.78;;;5.20;;
28437;SDS011;15667;52.376;9.708;2023-05-14T06:15:13;6.65;;;5.30;;
28437;SDS011;15667;52.376;9.708;2023-05-14T06:17:39;9.93;;;6.00;;
28437;SDS011;15667;52.376;9.708;2023-05-14T06:20:05;10.32;;;5.68;;
28437;SDS011;15667;52.376;9.708;2023-05-14T06:22:32;10.45;;;5.60;;
28437;SDS011;15667;52.376;9.708;2023-05-14T06:24:58;8.00;;;5.35;;
28437;SDS011;15667;52.376;9.708;2023-05-14T06:27:23;9.93;;;5.85;;
28437;SDS011;15667;52.376;9.708;2023-05-14T06:29:49;8.65;;;4.82;;
28437;SDS011;15667;52.376;9.708;2023-05-14T06:32:15;7.65;;;5.43;;
28437;SDS011;15667;52.376;9.708;2023-05-14T06:34:41;8.40;;;4.93;;
28437;SDS011;15667;52.376;9.708;2023-05-14T06:37:07;7.00;;;5.15;;
28437;SDS011;15667;52.376;9.708;2023-05-14T06:39:36;7.47;;;5.30;;
28437;SDS011;15667;52.376;9.708;2023-05-14T06:42:02;9.70;;;5.20;;
28437;SDS011;15667;52.376;9.708;2023-05-14T06:44:29;7.55;;;4.78;;
28437;SDS011;15667;52.376;9.708;2023-05-14T06:46:55;7.50;;;4.88;;
28437;SDS011;15667;52.376;9.708;2023-05-14T06:49:21;5.88;;;4.60;;
28437;SDS011;15667;52.376;9.708;2023-05-14T06:51:47;9.85;;;5.65;;
28437;SDS011;15667;52.376;9.708;2023-05-14T06:54:12;7.20;;;4.82;;
28437;SDS011;15667;52.376;9.708;2023-05-14T06:56:38;11.77;;;7.07;;
28437;SDS011;15667;52.376;9.708;2023-05-14T06:59:04;7.75;;;4.63;;
28437;SDS011;15667;52.376;9.708;2023-05-14T07:01:29;8.50;;;4.60;;
28437;SDS011;15667;52.376;9.708;2023-05-14T07:03:55;6.90;;;4.70;;
28437;SDS011;15667;52.376;9.708;2023-05-14T07:06:21;14.57;;;8.27;;
28437;SDS011;15667;52.376;9.708;2023-05-14T07:08:47;10.68;;;6.13;;
28437;SDS011;15667;52.376;9.708;2023-05-14T07:11:13;5.70;;;4.10;;
28437;SDS011;15667;52.376;9.708;2023-05-14T07:13:39;5.18;;;4.28;;
28437;SDS011;15667;52.376;9.708;2023-05-14T07:16:05;5.78;;;4.35;;
28437;SDS011;15667;52.376;9.708;2023-05-14T07:18:33;6.35;;;3.70;;
28437;SDS011;15667;52.376;9.708;2023-05-14T07:20:59;6.18;;;4.07;;
28437;SDS011;15667;52.376;9.708;2023-05-14T07:23:24;5.72;;;4.05;;
28437;SDS011;15667;52.376;9.708;2023-05-14T07:25:50;16.98;;;7.93;;
28437;SDS011;15667;52.376;9.708;2023-05-14T07:28:15;4.70;;;3.47;;
28437;SDS011;15667;52.376;9.708;2023-05-14T07:30:41;5.75;;;3.88;;
28437;SDS011;15667;52.376;9.708;2023-05-14T07:33:07;10.25;;;5.90;;
28437;SDS011;15667;52.376;9.708;2023-05-14T07:35:32;6.20;;;3.92;;
28437;SDS011;15667;52.376;9.708;2023-05-14T07:37:58;5.88;;;4.18;;
28437;SDS011;15667;52.376;9.708;2023-05-14T07:40:24;9.52;;;4.00;;
28437;SDS011;15667;52.376;9.708;2023-05-14T07:42:49;6.53;;;3.40;;
28437;SDS011;15667;52.376;9.708;2023-05-14T07:45:15;4.53;;;3.70;;
28437;SDS011;15667;52.376;9.708;2023-05-14T07:47:41;4.95;;;3.97;;
28437;SDS011;15667;52.376;9.708;2023-05-14T07:50:07;6.50;;;3.63;;
28437;SDS011;15667;52.376;9.708;2023-05-14T07:52:32;6.22;;;3.63;;
28437;SDS011;15667;52.376;9.708;2023-05-14T07:54:58;5.35;;;3.90;;
28437;SDS011;15667;52.376;9.708;2023-05-14T07:57:25;4.80;;;3.67;;
28437;SDS011;15667;52.376;9.708;2023-05-14T07:59:51;6.25;;;3.83;;
28437;SDS011;15667;52.376;9.708;2023-05-14T08:02:17;7.40;;;3.58;;
28437;SDS011;15667;52.376;9.708;2023-05-14T08:04:43;6.18;;;4.00;;
28437;SDS011;15667;52.376;9.708;2023-05-14T08:07:09;4.88;;;3.45;;
28437;SDS011;15667;52.376;9.708;2023-05-14T08:09:35;7.38;;;3.67;;
28437;SDS011;15667;52.376;9.708;2023-05-14T08:12:00;4.28;;;3.17;;
28437;SDS011;15667;52.376;9.708;2023-05-14T08:14:26;4.28;;;3.53;;
28437;SDS011;15667;52.376;9.708;2023-05-14T08:16:52;30.63;;;14.80;;
28437;SDS011;15667;52.376;9.708;2023-05-14T08:19:18;8.77;;;5.38;;
28437;SDS011;15667;52.376;9.708;2023-05-14T08:21:44;7.03;;;3.97;;
28437;SDS011;15667;52.376;9.708;2023-05-14T08:24:10;7.82;;;4.25;;
28437;SDS011;15667;52.376;9.708;2023-05-14T08:26:36;8.43;;;3.40;;
28437;SDS011;15667;52.376;9.708;2023-05-14T08:29:02;4.43;;;3.13;;
28437;SDS011;15667;52.376;9.708;2023-05-14T08:31:28;5.07;;;3.40;;
28437;SDS011;15667;52.376;9.708;2023-05-14T08:33:54;3.40;;;2.95;;
28437;SDS011;15667;52.376;9.708;2023-05-14T08:36:20;5.05;;;3.58;;
28437;SDS011;15667;52.376;9.708;2023-05-14T08:38:45;6.88;;;3.30;;
28437;SDS011;15667;52.376;9.708;2023-05-14T08:41:12;8.45;;;3.95;;
28437;SDS011;15667;52.376;9.708;2023-05-14T08:46:09;4.05;;;3.25;;
28437;SDS011;15667;52.376;9.708;2023-05-14T08:48:38;7.60;;;4.57;;
28437;SDS011;15667;52.376;9.708;2023-05-14T08:51:06;5.78;;;3.35;;
28437;SDS011;15667;52.376;9.708;2023-05-14T08:53:32;4.30;;;3.17;;
28437;SDS011;15667;52.376;9.708;2023-05-14T08:55:59;5.40;;;3.00;;
28437;SDS011;15667;52.376;9.708;2023-05-14T08:58:26;6.05;;;3.08;;
28437;SDS011;15667;52.376;9.708;2023-05-14T09:00:52;3.75;;;2.95;;
28437;SDS011;15667;52.376;9.708;2023-05-14T09:03:19;3.67;;;2.80;;
28437;SDS011;15667;52.376;9.708;2023-05-14T09:05:45;4.30;;;2.55;;
28437;SDS011;15667;52.376;9.708;2023-05-14T09:08:13;5.28;;;2.83;;
28437;SDS011;15667;52.376;9.708;2023-05-14T09:10:40;6.72;;;2.88;;
28437;SDS011;15667;52.376;9.708;2023-05-14T09:13:06;4.50;;;2.60;;
28437;SDS011;15667;52.376;9.708;2023-05-14T09:15:34;3.83;;;2.83;;
28437;SDS011;15667;52.376;9.708;2023-05-14T09:18:03;10.65;;;5.30;;
28437;SDS011;15667;52.376;9.708;2023-05-14T09:20:31;6.85;;;4.53;;
28437;SDS011;15667;52.376;9.708;2023-05-14T09:22:57;2.95;;;2.58;;
28437;SDS011;15667;52.376;9.708;2023-05-14T09:25:28;11.93;;;4.20;;
28437;SDS011;15667;52.376;9.708;2023-05-14T09:27:56;5.03;;;3.20;;
28437;SDS011;15667;52.376;9.708;2023-05-14T09:30:22;9.30;;;3.47;;
28437;SDS011;15667;52.376;9.708;2023-05-14T09:32:49;4.75;;;3.38;;
28437;SDS011;15667;52.376;9.708;2023-05-14T09:35:18;6.43;;;2.78;;
28437;SDS011;15667;52.376;9.708;2023-05-14T09:37:49;4.57;;;2.70;;
28437;SDS011;15667;52.376;9.708;2023-05-14T09:40:18;5.93;;;3.03;;
28437;SDS011;15667;52.376;9.708;2023-05-14T09:42:44;4.03;;;2.70;;
28437;SDS011;15667;52.376;9.708;2023-05-14T09:45:12;5.57;;;2.72;;
28437;SDS011;15667;52.376;9.708;2023-05-14T09:47:38;3.55;;;2.72;;
28437;SDS011;15667;52.376;9.708;2023-05-14T09:50:04;4.00;;;2.70;;
28437;SDS011;15667;52.376;9.708;2023-05-14T09:52:31;5.60;;;3.08;;
28437;SDS011;15667;52.376;9.708;2023-05-14T09:54:57;4.47;;;2.83;;
28437;SDS011;15667;52.376;9.708;2023-05-14T09:57:23;4.63;;;2.58;;
28437;SDS011;15667;52.376;9.708;2023-05-14T09:59:49;4.88;;;2.80;;
28437;SDS011;15667;52.376;9.708;2023-05-14T10:02:24;3.38;;;2.50;;
28437;SDS011;15667;52.376;9.708;2023-05-14T10:04:53;5.30;;;2.55;;
28437;SDS011;15667;52.376;9.708;2023-05-14T10:07:25;5.65;;;2.33;;
28437;SDS011;15667;52.376;9.708;2023-05-14T10:09:55;4.18;;;2.35;;
28437;SDS011;15667;52.376;9.708;2023-05-14T10:12:25;15.70;;;9.27;;
28437;SDS011;15667;52.376;9.708;2023-05-14T10:14:55;6.18;;;4.07;;
28437;SDS011;15667;52.376;9.708;2023-05-14T10:17:24;6.38;;;2.67;;
28437;SDS011;15667;52.376;9.708;2023-05-14T10:19:55;3.80;;;2.40;;
28437;SDS011;15667;52.376;9.708;2023-05-14T10:22:23;6.78;;;2.72;;
28437;SDS011;15667;52.376;9.708;2023-05-14T10:24:51;5.05;;;2.63;;
28437;SDS011;15667;52.376;9.708;2023-05-14T10:27:19;4.78;;;2.70;;
28437;SDS011;15667;52.376;9.708;2023-05-14T10:32:45;6.75;;;2.60;;
28437;SDS011;15667;52.376;9.708;2023-05-14T10:35:19;6.57;;;2.80;;
28437;SDS011;15667;52.376;9.708;2023-05-14T10:37:49;3.78;;;2.50;;
28437;SDS011;15667;52.376;9.708;2023-05-14T10:40:15;5.13;;;2.97;;
28437;SDS011;15667;52.376;9.708;2023-05-14T10:42:43;6.10;;;4.40;;
28437;SDS011;15667;52.376;9.708;2023-05-14T10:45:14;6.20;;;3.20;;
28437;SDS011;15667;52.376;9.708;2023-05-14T11:13:26;4.25;;;2.50;;
28437;SDS011;15667;52.376;9.708;2023-05-14T11:15:55;4.43;;;2.47;;
28437;SDS011;15667;52.376;9.708;2023-05-14T11:18:29;5.53;;;2.30;;
28437;SDS011;15667;52.376;9.708;2023-05-14T11:21:04;4.90;;;2.25;;
28437;SDS011;15667;52.376;9.708;2023-05-14T11:23:33;7.80;;;2.17;;
28437;SDS011;15667;52.376;9.708;2023-05-14T11:26:03;4.95;;;2.38;;
28437;SDS011;15667;52.376;9.708;2023-05-14T11:28:32;7.85;;;4.05;;
28437;SDS011;15667;52.376;9.708;2023-05-14T11:31:02;3.88;;;2.53;;
28437;SDS011;15667;52.376;9.708;2023-05-14T11:33:29;4.00;;;2.40;;
28437;SDS011;15667;52.376;9.708;2023-05-14T11:35:59;6.07;;;3.40;;
28437;SDS011;15667;52.376;9.708;2023-05-14T11:38:25;26.52;;;12.25;;
28437;SDS011;15667;52.376;9.708;2023-05-14T11:40:51;6.53;;;3.08;;
28437;SDS011;15667;52.376;9.708;2023-05-14T11:43:21;4.95;;;2.30;;
28437;SDS011;15667;52.376;9.708;2023-05-14T11:45:54;3.88;;;2.30;;
28437;SDS011;15667;52.376;9.708;2023-05-14T11:48:20;4.25;;;2.90;;
28437;SDS011;15667;52.376;9.708;2023-05-14T11:50:48;4.65;;;2.85;;
28437;SDS011;15667;52.376;9.708;2023-05-14T11:53:33;3.70;;;3.03;;
28437;SDS011;15667;52.376;9.708;2023-05-14T11:55:58;6.70;;;3.38;;
28437;SDS011;15667;52.376;9.708;2023-05-14T11:58:24;4.25;;;2.92;;
28437;SDS011;15667;52.376;9.708;2023-05-14T12:00:51;5.88;;;2.63;;
28437;SDS011;15667;52.376;9.708;2023-05-14T12:03:18;3.95;;;2.78;;
28437;SDS011;15667;52.376;9.708;2023-05-14T12:06:08;6.13;;;3.25;;
28437;SDS011;15667;52.376;9.708;2023-05-14T12:08:34;5.00;;;2.90;;
28437;SDS011;15667;52.376;9.708;2023-05-14T12:11:01;4.60;;;2.92;;
28437;SDS011;15667;52.376;9.708;2023-05-14T12:13:30;5.40;;;2.92;;
28437;SDS011;15667;52.376;9.708;2023-05-14T12:15:57;3.80;;;2.72;;
28437;SDS011;15667;52.376;9.708;2023-05-14T12:18:24;3.97;;;2.08;;
28437;SDS011;15667;52.376;9.708;2023-05-14T12:20:52;5.15;;;2.60;;
28437;SDS011;15667;52.376;9.708;2023-05-14T12:23:53;5.05;;;2.55;;
28437;SDS011;15667;52.376;9.708;2023-05-14T12:26:11;5.72;;;2.45;;
28437;SDS011;15667;52.376;9.708;2023-05-14T12:28:37;3.58;;;2.22;;
28437;SDS011;15667;52.376;9.708;2023-05-14T12:31:07;5.38;;;2.00;;
28437;SDS011;15667;52.376;9.708;2023-05-14T12:33:32;4.13;;;2.30;;
28437;SDS011;15667;52.376;9.708;2023-05-14T12:35:58;4.10;;;2.03;;
28437;SDS011;15667;52.376;9.708;2023-05-14T12:38:27;3.15;;;1.98;;
28437;SDS011;15667;52.376;9.708;2023-05-14T12:40:53;2.88;;;2.20;;
28437;SDS011;15667;52.376;9.708;2023-05-14T12:43:18;2.85;;;2.45;;
28437;SDS011;15667;52.376;9.708;2023-05-14T12:45:44;2.97;;;2.38;;
28437;SDS011;15667;52.376;9.708;2023-05-14T12:48:10;3.55;;;2.13;;
28437;SDS011;15667;52.376;9.708;2023-05-14T12:50:37;5.38;;;2.30;;
28437;SDS011;15667;52.376;9.708;2023-05-14T12:53:02;4.03;;;2.22;;
28437;SDS011;15667;52.376;9.708;2023-05-14T12:55:28;3.75;;;2.22;;
28437;SDS011;15667;52.376;9.708;2023-05-14T12:57:54;7.38;;;2.70;;
28437;SDS011;15667;52.376;9.708;2023-05-14T13:00:19;4.85;;;2.10;;
28437;SDS011;15667;52.376;9.708;2023-05-14T13:02:45;5.28;;;2.38;;
28437;SDS011;15667;52.376;9.708;2023-05-14T13:05:11;5.03;;;1.67;;
28437;SDS011;15667;52.376;9.708;2023-05-14T13:07:37;5.10;;;2.00;;
28437;SDS011;15667;52.376;9.708;2023-05-14T13:10:03;2.97;;;1.88;;
28437;SDS011;15667;52.376;9.708;2023-05-14T13:12:32;4.70;;;1.77;;
28437;SDS011;15667;52.376;9.708;2023-05-14T13:14:57;2.17;;;1.35;;
28437;SDS011;15667;52.376;9.708;2023-05-14T13:17:23;2.97;;;1.50;;
28437;SDS011;15667;52.376;9.708;2023-05-14T13:19:49;3.03;;;1.48;;
28437;SDS011;15667;52.376;9.708;2023-05-14T13:22:14;2.53;;;1.60;;
28437;SDS011;15667;52.376;9.708;2023-05-14T13:24:42;1.67;;;1.50;;
28437;SDS011;15667;52.376;9.708;2023-05-14T13:27:08;2.85;;;1.80;;
28437;SDS011;15667;52.376;9.708;2023-05-14T13:29:33;3.92;;;1.63;;
28437;SDS011;15667;52.376;9.708;2023-05-14T13:32:02;4.53;;;1.70;;
28437;SDS011;15667;52.376;9.708;2023-05-14T13:34:28;3.10;;;1.38;;
28437;SDS011;15667;52.376;9.708;2023-05-14T13:36:54;4.43;;;1.83;;
28437;SDS011;15667;52.376;9.708;2023-05-14T13:39:23;1.88;;;1.63;;
28437;SDS011;15667;52.376;9.708;2023-05-14T13:41:51;5.32;;;1.83;;
28437;SDS011;15667;52.376;9.708;2023-05-14T13:44:19;2.25;;;1.63;;
28437;SDS011;15667;52.376;9.708;2023-05-14T13:46:45;3.90;;;1.70;;
28437;SDS011;15667;52.376;9.708;2023-05-14T13:49:11;2.42;;;1.58;;
28437;SDS011;15667;52.376;9.708;2023-05-14T13:51:37;4.22;;;1.83;;
28437;SDS011;15667;52.376;9.708;2023-05-14T13:54:02;6.47;;;2.10;;
28437;SDS011;15667;52.376;9.708;2023-05-14T13:56:28;6.72;;;2.60;;
28437;SDS011;15667;52.376;9.708;2023-05-14T13:58:53;6.03;;;2.60;;
28437;SDS011;15667;52.376;9.708;2023-05-14T14:01:19;5.18;;;3.10;;
28437;SDS011;15667;52.376;9.708;2023-05-14T14:03:45;4.05;;;2.17;;
28437;SDS011;15667;52.376;9.708;2023-05-14T14:06:11;4.40;;;2.33;;
28437;SDS011;15667;52.376;9.708;2023-05-14T14:08:36;6.15;;;2.25;;
28437;SDS011;15667;52.376;9.708;2023-05-14T14:11:02;8.40;;;2.40;;
28437;SDS011;15667;52.376;9.708;2023-05-14T14:13:28;3.67;;;2.45;;
28437;SDS011;15667;52.376;9.708;2023-05-14T14:15:53;4.82;;;2.70;;
28437;SDS011;15667;52.376;9.708;2023-05-14T14:18:19;5.25;;;2.63;;
28437;SDS011;15667;52.376;9.708;2023-05-14T14:20:45;8.07;;;3.30;;
28437;SDS011;15667;52.376;9.708;2023-05-14T14:23:10;7.43;;;3.60;;
28437;SDS011;15667;52.376;9.708;2023-05-14T14:25:36;4.68;;;2.78;;
28437;SDS011;15667;52.376;9.708;2023-05-14T14:28:02;5.05;;;2.92;;
28437;SDS011;15667;52.376;9.708;2023-05-14T14:30:27;11.70;;;3.25;;
28437;SDS011;15667;52.376;9.708;2023-05-14T14:32:53;4.65;;;3.33;;
28437;SDS011;15667;52.376;9.708;2023-05-14T14:35:19;5.18;;;3.60;;
28437;SDS011;15667;52.376;9.708;2023-05-14T14:37:44;10.68;;;3.25;;
28437;SDS011;15667;52.376;9.708;2023-05-14T14:40:16;6.60;;;3.35;;
28437;SDS011;15667;52.376;9.708;2023-05-14T14:42:42;4.32;;;3.13;;
28437;SDS011;15667;52.376;9.708;2023-05-14T14:45:08;4.80;;;3.30;;
28437;SDS011;15667;52.376;9.708;2023-05-14T14:47:34;7.63;;;3.10;;
28437;SDS011;15667;52.376;9.708;2023-05-14T14:50:00;5.72;;;3.13;;
28437;SDS011;15667;52.376;9.708;2023-05-14T14:52:25;5.25;;;3.50;;
28437;SDS011;15667;52.376;9.708;2023-05-14T14:54:52;8.00;;;3.05;;
28437;SDS011;15667;52.376;9.708;2023-05-14T14:57:18;4.90;;;2.80;;
28437;SDS011;15667;52.376;9.708;2023-05-14T14:59:44;6.68;;;2.40;;
28437;SDS011;15667;52.376;9.708;2023-05-14T15:02:10;4.65;;;2.20;;
28437;SDS011;15667;52.376;9.708;2023-05-14T15:04:35;3.95;;;2.10;;
28437;SDS011;15667;52.376;9.708;2023-05-14T15:07:02;7.97;;;2.40;;
28437;SDS011;15667;52.376;9.708;2023-05-14T15:09:28;3.72;;;2.45;;
28437;SDS011;15667;52.376;9.708;2023-05-14T15:11:57;9.38;;;2.97;;
28437;SDS011;15667;52.376;9.708;2023-05-14T15:14:23;3.75;;;2.75;;
28437;SDS011;15667;52.376;9.708;2023-05-14T15:16:48;3.67;;;2.35;;
28437;SDS011;15667;52.376;9.708;2023-05-14T15:19:14;4.60;;;2.88;;
28437;SDS011;15667;52.376;9.708;2023-05-14T15:21:40;3.17;;;2.70;;